createdAt,value
2022-11-05T00:02:20.892Z,101672.28
2022-11-05T00:05:05.647Z,101665.88
2022-11-05T00:07:58.484Z,101663.81
2022-11-05T00:10:28.494Z,101666.84
2022-11-05T00:13:15.630Z,101668.44
2022-11-05T00:16:00.315Z,101668.47
2022-11-05T00:18:26.658Z,101666.31
2022-11-05T00:20:53.108Z,101674.13
2022-11-05T00:23:38.094Z,101677.59
2022-11-05T00:26:07.306Z,101687.63
2022-11-05T00:28:35.521Z,101694.91
2022-11-05T00:31:04.805Z,101698.94
2022-11-05T00:33:31.774Z,101692.38
2022-11-05T00:35:58.542Z,101691.84
2022-11-05T00:38:24.976Z,101701.66
2022-11-05T00:40:51.317Z,101706.03
2022-11-05T00:43:36.022Z,101702.88
2022-11-05T00:46:02.354Z,101706.00
2022-11-05T00:48:47.104Z,101706.34
2022-11-05T00:51:13.535Z,101709.88
2022-11-05T00:53:39.865Z,101717.44
2022-11-05T00:56:06.322Z,101720.69
2022-11-05T00:58:32.681Z,101718.25
2022-11-05T01:01:00.651Z,101732.25
2022-11-05T01:03:29.402Z,101723.50
2022-11-05T01:05:58.776Z,101731.94
2022-11-05T01:08:27.277Z,101737.19
2022-11-05T01:10:56.889Z,101736.47
2022-11-05T01:13:27.114Z,101730.41
2022-11-05T01:15:54.636Z,101732.78
2022-11-05T01:18:22.635Z,101743.53
2022-11-05T01:20:49.343Z,101738.06
2022-11-05T01:23:16.794Z,101741.00
2022-11-05T01:25:43.864Z,101740.84
2022-11-05T01:28:10.744Z,101738.56
2022-11-05T01:30:37.627Z,101735.63
2022-11-05T01:33:04.070Z,101737.91
2022-11-05T01:35:30.429Z,101738.13
2022-11-05T01:37:56.745Z,101738.50
2022-11-05T01:40:24.837Z,101742.28
2022-11-05T01:42:52.504Z,101753.97
2022-11-05T01:45:27.538Z,101760.25
2022-11-05T01:48:08.896Z,101757.66
2022-11-05T01:50:44.029Z,101758.44
2022-11-05T01:53:19.484Z,101755.66
2022-11-05T01:56:03.542Z,101755.81
2022-11-05T01:58:39.827Z,101754.72
2022-11-05T02:01:06.228Z,101746.81
2022-11-05T02:03:32.691Z,101743.22
2022-11-05T02:06:00.818Z,101744.97
2022-11-05T02:08:51.608Z,101733.81
2022-11-05T02:11:19.488Z,101739.25
2022-11-05T02:13:47.895Z,101732.28
2022-11-05T02:16:34.081Z,101727.06
2022-11-05T02:19:28.348Z,101722.59
2022-11-05T02:22:19.649Z,101727.44
2022-11-05T02:25:22.077Z,101727.66
2022-11-05T02:28:07.464Z,101719.94
2022-11-05T02:31:18.677Z,101726.53
2022-11-05T02:33:58.564Z,101717.31
2022-11-05T02:36:50.085Z,101725.66
2022-11-05T02:39:44.897Z,101729.81
2022-11-05T02:42:34.928Z,101724.72
2022-11-05T02:45:27.012Z,101730.44
2022-11-05T02:48:23.450Z,101730.81
2022-11-05T02:51:05.076Z,101730.03
2022-11-05T02:53:48.767Z,101730.34
2022-11-05T02:56:22.884Z,101717.34
2022-11-05T02:58:49.395Z,101722.75
2022-11-05T03:01:15.921Z,101720.44
2022-11-05T03:03:47.013Z,101714.75
2022-11-05T03:06:16.271Z,101722.44
2022-11-05T03:09:03.107Z,101723.22
2022-11-05T03:11:34.612Z,101721.22
2022-11-05T03:14:22.290Z,101722.44
2022-11-05T03:17:12.534Z,101726.41
2022-11-05T03:19:53.902Z,101721.88
2022-11-05T03:22:32.429Z,101723.00
2022-11-05T03:25:03.520Z,101733.00
2022-11-05T03:27:33.419Z,101729.91
2022-11-05T03:30:04.768Z,101733.00
2022-11-05T03:32:36.187Z,101738.59
2022-11-05T03:35:07.464Z,101737.97
2022-11-05T03:37:39.593Z,101740.44
2022-11-05T03:40:08.707Z,101745.09
2022-11-05T03:42:38.642Z,101750.38
2022-11-05T03:45:14.613Z,101737.69
2022-11-05T03:47:44.098Z,101736.38
2022-11-05T03:50:40.016Z,101741.28
2022-11-05T03:53:14.979Z,101743.44
2022-11-05T03:55:50.750Z,101744.00
2022-11-05T03:58:20.894Z,101748.38
2022-11-05T04:00:48.866Z,101750.06
2022-11-05T04:03:15.193Z,101750.97
2022-11-05T04:05:41.649Z,101755.28
2022-11-05T04:08:27.952Z,101757.25
2022-11-05T04:11:12.745Z,101752.59
2022-11-05T04:13:39.079Z,101760.06
2022-11-05T04:16:24.476Z,101762.53
2022-11-05T04:18:50.789Z,101753.69
2022-11-05T04:21:35.429Z,101761.63
2022-11-05T04:24:10.701Z,101759.00
2022-11-05T04:26:43.480Z,101762.09
2022-11-05T04:29:28.443Z,101762.56
2022-11-05T04:31:55.128Z,101752.28
2022-11-05T04:34:22.122Z,101756.91
2022-11-05T04:36:50.397Z,101755.50
2022-11-05T04:39:18.199Z,101757.50
2022-11-05T04:41:47.784Z,101749.34
2022-11-05T04:44:15.542Z,101754.41
2022-11-05T04:46:42.155Z,101757.63
2022-11-05T04:49:08.483Z,101758.56
2022-11-05T04:51:34.814Z,101764.72
2022-11-05T04:54:01.186Z,101767.41
2022-11-05T04:56:27.561Z,101771.31
2022-11-05T04:58:53.908Z,101767.59
2022-11-05T05:01:22.879Z,101766.38
2022-11-05T05:03:53.943Z,101768.50
2022-11-05T05:06:21.489Z,101765.56
2022-11-05T05:08:49.493Z,101762.44
2022-11-05T05:11:18.082Z,101758.91
2022-11-05T05:13:44.457Z,101758.91
2022-11-05T05:16:20.097Z,101756.88
2022-11-05T05:18:47.150Z,101760.34
2022-11-05T05:21:33.202Z,101768.72
2022-11-05T05:23:59.773Z,101773.50
2022-11-05T05:26:26.282Z,101766.19
2022-11-05T05:28:53.776Z,101767.91
2022-11-05T05:31:21.353Z,101762.81
2022-11-05T05:33:48.471Z,101763.44
2022-11-05T05:36:14.919Z,101758.56
2022-11-05T05:38:41.217Z,101762.31
2022-11-05T05:41:07.520Z,101765.25
2022-11-05T05:43:34.156Z,101768.00
2022-11-05T05:46:05.025Z,101773.84
2022-11-05T05:48:31.701Z,101775.22
2022-11-05T05:51:05.732Z,101781.78
2022-11-05T05:53:32.340Z,101777.00
2022-11-05T05:55:59.144Z,101780.72
2022-11-05T05:58:26.881Z,101783.97
2022-11-05T06:00:53.855Z,101782.25
2022-11-05T06:03:20.241Z,101791.03
2022-11-05T06:05:46.571Z,101788.72
2022-11-05T06:08:12.878Z,101800.28
2022-11-05T06:10:39.249Z,101802.75
2022-11-05T06:13:05.666Z,101807.47
2022-11-05T06:15:35.821Z,101804.72
2022-11-05T06:18:02.563Z,101808.28
2022-11-05T06:20:28.856Z,101803.34
2022-11-05T06:22:56.681Z,101813.81
2022-11-05T06:25:23.699Z,101805.78
2022-11-05T06:27:50.177Z,101803.19
2022-11-05T06:30:17.519Z,101815.31
2022-11-05T06:32:44.298Z,101808.56
2022-11-05T06:35:10.783Z,101812.13
2022-11-05T06:37:37.104Z,101803.88
2022-11-05T06:40:03.646Z,101802.56
2022-11-05T06:42:30.090Z,101809.19
2022-11-05T06:44:56.426Z,101808.88
2022-11-05T06:47:22.841Z,101806.72
2022-11-05T06:49:49.202Z,101807.03
2022-11-05T06:52:15.749Z,101805.66
2022-11-05T06:54:42.686Z,101814.78
2022-11-05T06:57:10.476Z,101823.25
2022-11-05T06:59:40.035Z,101825.59
2022-11-05T07:02:07.460Z,101820.22
2022-11-05T07:04:33.873Z,101828.69
2022-11-05T07:07:00.926Z,101828.69
2022-11-05T07:09:28.506Z,101828.69
2022-11-05T07:11:55.679Z,101832.06
2022-11-05T07:14:22.131Z,101838.84
2022-11-05T07:16:48.468Z,101835.13
2022-11-05T07:19:14.767Z,101842.06
2022-11-05T07:21:41.082Z,101833.78
2022-11-05T07:24:07.872Z,101839.53
2022-11-05T07:26:34.769Z,101839.22
2022-11-05T07:29:01.166Z,101837.22
2022-11-05T07:31:27.514Z,101828.72
2022-11-05T07:33:53.842Z,101830.69
2022-11-05T07:36:20.151Z,101838.44
2022-11-05T07:38:46.455Z,101839.09
2022-11-05T07:41:12.768Z,101837.28
2022-11-05T07:43:39.068Z,101841.25
2022-11-05T07:46:07.589Z,101834.88
2022-11-05T07:48:37.544Z,101841.00
2022-11-05T07:51:03.965Z,101844.72
2022-11-05T07:53:30.308Z,101832.44
2022-11-05T07:55:58.812Z,101835.78
2022-11-05T07:58:25.136Z,101836.41
2022-11-05T08:00:51.679Z,101840.31
2022-11-05T08:03:19.216Z,101836.53
2022-11-05T08:05:47.366Z,101833.59
2022-11-05T08:08:15.992Z,101841.28
2022-11-05T08:10:42.373Z,101842.72
2022-11-05T08:13:09.895Z,101841.56
2022-11-05T08:15:36.572Z,101831.91
2022-11-05T08:18:07.969Z,101839.78
2022-11-05T08:20:35.272Z,101831.69
2022-11-05T08:23:01.704Z,101834.91
2022-11-05T08:25:28.500Z,101835.19
2022-11-05T08:28:02.237Z,101836.72
2022-11-05T08:30:29.574Z,101830.69
2022-11-05T08:32:58.143Z,101831.41
2022-11-05T08:35:25.001Z,101825.66
2022-11-05T08:37:51.317Z,101826.44
2022-11-05T08:40:17.651Z,101824.75
2022-11-05T08:42:43.981Z,101826.81
2022-11-05T08:45:10.363Z,101836.03
2022-11-05T08:47:36.706Z,101844.59
2022-11-05T08:50:03.290Z,101843.00
2022-11-05T08:52:29.595Z,101845.22
2022-11-05T08:54:55.903Z,101848.28
2022-11-05T08:57:22.226Z,101842.94
2022-11-05T08:59:48.538Z,101849.81
2022-11-05T09:02:15.018Z,101848.22
2022-11-05T09:04:41.391Z,101847.88
2022-11-05T09:07:07.975Z,101852.88
2022-11-05T09:09:34.273Z,101851.25
2022-11-05T09:12:15.884Z,101844.53
2022-11-05T09:14:42.218Z,101835.13
2022-11-05T09:17:26.556Z,101839.63
2022-11-05T09:19:52.863Z,101824.16
2022-11-05T09:22:19.203Z,101820.31
2022-11-05T09:24:45.500Z,101827.56
2022-11-05T09:27:14.429Z,101835.69
2022-11-05T09:29:41.761Z,101834.41
2022-11-05T09:32:09.062Z,101825.97
2022-11-05T09:34:36.032Z,101824.38
2022-11-05T09:37:02.918Z,101825.00
2022-11-05T09:39:29.399Z,101826.19
2022-11-05T09:42:01.475Z,101831.06
2022-11-05T09:44:37.629Z,101839.31
2022-11-05T09:47:11.034Z,101840.97
2022-11-05T09:49:44.364Z,101849.72
2022-11-05T09:52:17.927Z,101846.81
2022-11-05T09:54:45.906Z,101848.69
2022-11-05T09:57:18.655Z,101857.38
2022-11-05T09:59:48.272Z,101859.38
2022-11-05T10:02:23.704Z,101871.47
2022-11-05T10:04:54.653Z,101865.44
2022-11-05T10:07:25.466Z,101864.34
2022-11-05T10:09:57.549Z,101870.53
2022-11-05T10:12:49.989Z,101863.50
2022-11-05T10:15:31.186Z,101857.06
2022-11-05T10:18:12.381Z,101850.06
2022-11-05T10:20:39.466Z,101852.22
2022-11-05T10:23:11.914Z,101869.50
2022-11-05T10:25:42.266Z,101870.00
2022-11-05T10:28:16.026Z,101868.09
2022-11-05T10:30:44.750Z,101876.06
2022-11-05T10:33:15.306Z,101870.88
2022-11-05T10:35:49.224Z,101883.00
2022-11-05T10:38:15.685Z,101872.69
2022-11-05T10:41:00.241Z,101883.88
2022-11-05T10:43:35.633Z,101879.56
2022-11-05T10:46:20.262Z,101878.34
2022-11-05T10:49:34.873Z,101874.75
2022-11-05T10:52:21.237Z,101870.66
2022-11-05T10:54:50.141Z,101870.91
2022-11-05T10:57:37.358Z,101867.28
2022-11-05T11:00:16.362Z,101877.72
2022-11-05T11:02:43.460Z,101872.06
2022-11-05T11:05:39.834Z,101872.41
2022-11-05T11:08:08.916Z,101875.28
2022-11-05T11:10:42.124Z,101873.25
2022-11-05T11:13:24.188Z,101879.94
2022-11-05T11:15:51.333Z,101880.53
2022-11-05T11:18:35.872Z,101877.31
2022-11-05T11:21:12.445Z,101871.41
2022-11-05T11:23:41.458Z,101881.75
2022-11-05T11:26:10.097Z,101881.28
2022-11-05T11:28:45.663Z,101875.13
2022-11-05T11:31:27.103Z,101880.22
2022-11-05T11:34:00.296Z,101864.38
2022-11-05T11:36:34.033Z,101867.25
2022-11-05T11:39:04.236Z,101871.69
2022-11-05T11:41:41.731Z,101866.78
2022-11-05T11:44:18.282Z,101875.69
2022-11-05T11:46:52.562Z,101878.81
2022-11-05T11:49:50.011Z,101866.78
2022-11-05T11:52:24.185Z,101872.66
2022-11-05T11:54:51.997Z,101874.66
2022-11-05T11:57:29.148Z,101868.41
2022-11-05T12:00:14.368Z,101866.72
2022-11-05T12:03:12.574Z,101862.88
2022-11-05T12:05:52.837Z,101853.16
2022-11-05T12:08:45.316Z,101854.47
2022-11-05T12:11:21.289Z,101853.63
2022-11-05T12:14:19.997Z,101861.44
2022-11-05T12:17:05.645Z,101856.66
2022-11-05T12:19:41.094Z,101862.94
2022-11-05T12:22:28.955Z,101860.81
2022-11-05T12:25:21.476Z,101849.09
2022-11-05T12:28:36.410Z,101846.06
2022-11-05T12:31:05.605Z,101846.19
2022-11-05T12:33:53.738Z,101845.75
2022-11-05T12:37:01.925Z,101845.00
2022-11-05T12:39:47.226Z,101835.81
2022-11-05T12:42:22.644Z,101826.88
2022-11-05T12:44:55.561Z,101830.53
2022-11-05T12:47:35.038Z,101830.94
2022-11-05T12:50:15.944Z,101823.56
2022-11-05T12:53:13.595Z,101840.91
2022-11-05T12:55:48.292Z,101835.03
2022-11-05T12:58:54.904Z,101827.34
2022-11-05T13:01:31.405Z,101833.25
2022-11-05T13:04:02.225Z,101828.56
2022-11-05T13:06:51.326Z,101824.97
2022-11-05T13:09:24.677Z,101824.00
2022-11-05T13:11:57.853Z,101823.28
2022-11-05T13:14:29.170Z,101812.72
2022-11-05T13:17:04.751Z,101814.59
2022-11-05T13:19:43.661Z,101808.34
2022-11-05T13:22:23.016Z,101800.19
2022-11-05T13:24:53.314Z,101797.28
2022-11-05T13:27:43.712Z,101787.69
2022-11-05T13:30:17.878Z,101782.88
2022-11-05T13:32:49.157Z,101782.88
2022-11-05T13:35:29.765Z,101782.66
2022-11-05T13:38:23.059Z,101772.91
2022-11-05T13:41:20.243Z,101784.44
2022-11-05T13:43:58.834Z,101785.50
2022-11-05T13:46:59.395Z,101782.00
2022-11-05T13:49:53.769Z,101774.88
2022-11-05T13:52:46.086Z,101781.41
2022-11-05T13:55:21.332Z,101766.16
2022-11-05T13:58:02.513Z,101772.28
2022-11-05T14:00:42.126Z,101772.78
2022-11-05T14:03:18.478Z,101766.25
2022-11-05T14:05:53.344Z,101783.13
2022-11-05T14:08:27.954Z,101781.94
2022-11-05T14:11:07.089Z,101778.53
2022-11-05T14:13:42.711Z,101787.94
2022-11-05T14:16:16.761Z,101782.63
2022-11-05T14:18:48.384Z,101782.63
2022-11-05T14:21:54.559Z,101781.94
2022-11-05T14:24:20.801Z,101791.03
2022-11-05T14:27:02.271Z,101790.56
2022-11-05T14:29:41.480Z,101779.53
2022-11-05T14:32:16.636Z,101789.59
2022-11-05T14:34:47.069Z,101782.28
2022-11-05T14:37:13.329Z,101780.94
2022-11-05T14:39:40.373Z,101778.13
2022-11-05T14:42:15.589Z,101769.97
2022-11-05T14:45:01.938Z,101791.81
2022-11-05T14:47:40.602Z,101785.44
2022-11-05T14:50:25.575Z,101783.25
2022-11-05T14:52:58.095Z,101777.22
2022-11-05T14:55:29.654Z,101777.44
2022-11-05T14:57:55.909Z,101781.78
2022-11-05T15:00:40.625Z,101785.38
2022-11-05T15:03:30.813Z,101775.66
2022-11-05T15:06:07.821Z,101784.53
2022-11-05T15:08:53.597Z,101782.03
2022-11-05T15:11:30.431Z,101775.03
2022-11-05T15:14:27.136Z,101777.66
2022-11-05T15:16:59.635Z,101782.03
2022-11-05T15:19:34.602Z,101776.94
2022-11-05T15:22:06.810Z,101774.19
2022-11-05T15:24:34.350Z,101778.41
2022-11-05T15:27:12.507Z,101775.03
2022-11-05T15:29:39.916Z,101770.00
2022-11-05T15:32:22.225Z,101771.91
2022-11-05T15:34:55.768Z,101769.72
2022-11-05T15:37:27.260Z,101764.53
2022-11-05T15:39:55.279Z,101765.50
2022-11-05T15:42:26.482Z,101767.53
2022-11-05T15:44:57.476Z,101757.94
2022-11-05T15:47:36.937Z,101761.75
2022-11-05T15:50:14.743Z,101754.03
2022-11-05T15:52:50.973Z,101748.78
2022-11-05T15:55:26.527Z,101752.63
2022-11-05T15:58:03.033Z,101749.25
2022-11-05T16:00:34.541Z,101757.16
2022-11-05T16:03:05.178Z,101750.94
2022-11-05T16:05:35.390Z,101751.94
2022-11-05T16:08:04.196Z,101740.78
2022-11-05T16:10:37.964Z,101741.00
2022-11-05T16:13:31.252Z,101746.53
2022-11-05T16:16:04.137Z,101743.38
2022-11-05T16:18:37.573Z,101746.97
2022-11-05T16:21:17.458Z,101744.34
2022-11-05T16:23:53.337Z,101745.28
2022-11-05T16:29:32.327Z,101736.41
2022-11-05T16:32:00.912Z,101740.00
2022-11-05T16:34:39.318Z,101733.06
2022-11-05T16:37:07.587Z,101737.38
2022-11-05T16:39:34.014Z,101731.34
2022-11-05T16:42:00.337Z,101735.31
2022-11-05T16:44:26.742Z,101728.44
2022-11-05T16:46:53.240Z,101742.69
2022-11-05T16:49:20.850Z,101737.53
2022-11-05T16:51:47.183Z,101742.81
2022-11-05T16:54:13.513Z,101743.03
2022-11-05T16:56:42.274Z,101743.25
2022-11-05T16:59:12.028Z,101743.34
2022-11-05T17:01:40.773Z,101743.25
2022-11-05T17:04:08.971Z,101739.66
2022-11-05T17:06:35.286Z,101734.59
2022-11-05T17:09:01.587Z,101730.78
2022-11-05T17:11:27.886Z,101736.91
2022-11-05T17:13:54.214Z,101740.63
2022-11-05T17:16:20.603Z,101738.94
2022-11-05T17:18:47.034Z,101729.56
2022-11-05T17:21:14.088Z,101724.06
2022-11-05T17:23:40.506Z,101732.72
2022-11-05T17:26:10.323Z,101731.75
2022-11-05T17:28:37.816Z,101733.19
2022-11-05T17:31:06.754Z,101746.38
2022-11-05T17:33:33.886Z,101735.63
2022-11-05T17:36:00.429Z,101727.59
2022-11-05T17:38:26.940Z,101732.88
2022-11-05T17:40:53.373Z,101729.28
2022-11-05T17:43:20.255Z,101737.53
2022-11-05T17:45:50.061Z,101749.53
2022-11-05T17:48:16.836Z,101752.06
2022-11-05T17:50:45.723Z,101750.28
2022-11-05T17:53:14.147Z,101762.53
2022-11-05T17:55:42.065Z,101762.41
2022-11-05T17:58:08.485Z,101763.97
2022-11-05T18:00:35.238Z,101760.72
2022-11-05T18:03:01.644Z,101768.75
2022-11-05T18:05:28.216Z,101767.03
2022-11-05T18:07:55.458Z,101763.47
2022-11-05T18:10:22.606Z,101762.59
2022-11-05T18:12:48.991Z,101756.28
2022-11-05T18:15:15.781Z,101753.13
2022-11-05T18:17:42.485Z,101754.09
2022-11-05T18:20:15.750Z,101743.75
2022-11-05T18:22:45.372Z,101743.69
2022-11-05T18:25:13.080Z,101742.47
2022-11-05T18:27:40.430Z,101743.91
2022-11-05T18:30:07.719Z,101728.91
2022-11-05T18:32:34.051Z,101729.75
2022-11-05T18:35:00.516Z,101732.88
2022-11-05T18:37:26.893Z,101737.63
2022-11-05T18:39:53.918Z,101741.94
2022-11-05T18:42:21.197Z,101739.50
2022-11-05T18:44:48.360Z,101744.34
2022-11-05T18:47:15.354Z,101723.06
2022-11-05T18:49:41.689Z,101727.47
2022-11-05T18:52:08.278Z,101725.56
2022-11-05T18:54:34.687Z,101725.56
2022-11-05T18:57:01.064Z,101721.13
2022-11-05T18:59:37.639Z,101720.69
2022-11-05T19:02:05.926Z,101719.97
2022-11-05T19:04:32.424Z,101720.81
2022-11-05T19:07:03.364Z,101706.28
2022-11-05T19:09:31.450Z,101701.50
2022-11-05T19:11:57.780Z,101697.69
2022-11-05T19:14:24.207Z,101696.84
2022-11-05T19:16:50.541Z,101701.50
2022-11-05T19:19:16.903Z,101705.94
2022-11-05T19:21:43.305Z,101694.97
2022-11-05T19:24:09.769Z,101683.34
2022-11-05T19:26:36.121Z,101673.03
2022-11-05T19:29:03.408Z,101657.19
2022-11-05T19:31:30.824Z,101666.28
2022-11-05T19:33:57.257Z,101658.69
2022-11-05T19:36:25.178Z,101665.31
2022-11-05T19:39:06.178Z,101656.91
2022-11-05T19:41:32.534Z,101656.19
2022-11-05T19:43:59.470Z,101661.91
2022-11-05T19:46:25.994Z,101676.03
2022-11-05T19:48:53.028Z,101670.75
2022-11-05T19:51:23.164Z,101669.09
2022-11-05T19:53:55.432Z,101681.06
2022-11-05T19:56:25.973Z,101668.72
2022-11-05T19:58:53.126Z,101666.00
2022-11-05T20:01:20.875Z,101662.91
2022-11-05T20:03:47.416Z,101676.59
2022-11-05T20:06:17.019Z,101667.94
2022-11-05T20:09:07.243Z,101661.72
2022-11-05T20:11:31.057Z,101659.09
2022-11-05T20:13:57.726Z,101669.63
2022-11-05T20:16:27.467Z,101666.28
2022-11-05T20:18:54.140Z,101661.34
2022-11-05T20:21:20.642Z,101655.47
2022-11-05T20:23:47.517Z,101660.22
2022-11-05T20:26:14.125Z,101656.84
2022-11-05T20:28:42.583Z,101653.28
2022-11-05T20:31:11.193Z,101650.75
2022-11-05T20:33:38.191Z,101649.44
2022-11-05T20:36:08.397Z,101650.06
2022-11-05T20:38:34.773Z,101657.34
2022-11-05T20:41:06.396Z,101660.22
2022-11-05T20:43:32.720Z,101660.22
2022-11-05T20:45:59.153Z,101652.31
2022-11-05T20:48:25.469Z,101653.28
2022-11-05T20:50:51.783Z,101652.31
2022-11-05T20:53:18.809Z,101649.44
2022-11-05T20:55:47.741Z,101652.31
2022-11-05T20:58:15.825Z,101645.47
2022-11-05T21:00:49.539Z,101657.31
2022-11-05T21:03:15.878Z,101657.75
2022-11-05T21:05:49.917Z,101653.75
2022-11-05T21:08:16.338Z,101659.03
2022-11-05T21:10:50.012Z,101662.34
2022-11-05T21:13:18.075Z,101664.97
2022-11-05T21:15:50.146Z,101666.25
2022-11-05T21:18:18.114Z,101648.75
2022-11-05T21:20:45.502Z,101652.75
2022-11-05T21:23:12.158Z,101654.47
2022-11-05T21:25:39.729Z,101657.81
2022-11-05T21:28:07.589Z,101656.47
2022-11-05T21:30:36.323Z,101658.25
2022-11-05T21:33:05.138Z,101655.63
2022-11-05T21:35:32.278Z,101665.19
2022-11-05T21:37:58.681Z,101666.03
2022-11-05T21:40:25.136Z,101658.03
2022-11-05T21:42:51.472Z,101655.19
2022-11-05T21:45:17.952Z,101646.13
2022-11-05T21:47:44.338Z,101642.41
2022-11-05T21:50:11.349Z,101641.13
2022-11-05T21:52:56.458Z,101635.22
2022-11-05T21:55:41.229Z,101643.88
2022-11-05T21:58:36.283Z,101633.22
2022-11-05T22:01:03.266Z,101639.03
2022-11-05T22:03:29.599Z,101625.09
2022-11-05T22:05:56.672Z,101623.22
2022-11-05T22:08:23.014Z,101626.78
2022-11-05T22:10:49.373Z,101626.88
2022-11-05T22:13:15.686Z,101631.00
2022-11-05T22:15:42.065Z,101631.84
2022-11-05T22:18:08.437Z,101634.59
2022-11-05T22:20:38.314Z,101637.09
2022-11-05T22:23:10.074Z,101626.69
2022-11-05T22:25:37.607Z,101628.69
2022-11-05T22:28:04.142Z,101617.81
2022-11-05T22:30:34.511Z,101614.56
2022-11-05T22:33:01.110Z,101609.53
2022-11-05T22:35:27.468Z,101593.91
2022-11-05T22:37:53.947Z,101591.06
2022-11-05T22:40:23.719Z,101595.38
2022-11-05T22:42:50.350Z,101590.94
2022-11-05T22:45:16.682Z,101604.25
2022-11-05T22:47:43.006Z,101601.88
2022-11-05T22:50:09.585Z,101597.47
2022-11-05T22:52:35.897Z,101602.59
2022-11-05T22:55:04.845Z,101601.88
2022-11-05T22:57:31.145Z,101600.22
2022-11-05T22:59:57.473Z,101596.63
2022-11-05T23:02:24.026Z,101598.41
2022-11-05T23:04:51.598Z,101599.13
2022-11-05T23:07:37.237Z,101589.22
2022-11-05T23:10:22.489Z,101588.16
2022-11-05T23:12:48.915Z,101588.38
2022-11-05T23:15:35.263Z,101584.91
2022-11-05T23:18:30.861Z,101578.69
2022-11-05T23:21:20.472Z,101578.69
2022-11-05T23:24:04.064Z,101573.41
2022-11-05T23:26:51.210Z,101567.88
2022-11-05T23:29:19.924Z,101572.38
2022-11-05T23:32:04.917Z,101570.00
2022-11-05T23:34:31.314Z,101562.09
2022-11-05T23:37:16.309Z,101558.94
2022-11-05T23:39:43.109Z,101564.53
2022-11-05T23:42:28.377Z,101566.44
2022-11-05T23:45:14.848Z,101573.13
2022-11-05T23:48:00.360Z,101575.88
2022-11-05T23:50:27.330Z,101584.22
2022-11-05T23:52:54.529Z,101574.63
2022-11-05T23:55:22.446Z,101572.72
2022-11-05T23:57:49.419Z,101555.34
